sensor_id;sensor_type;location;lat;lon;timestamp;temperature;humidity
40151;DHT22;25866;52.420;10.640;2023-04-06T00:01:32;1.90;99.90
40151;DHT22;25866;52.420;10.640;2023-04-06T00:03:58;1.90;99.90
40151;DHT22;25866;52.420;10.640;2023-04-06T00:06:23;1.90;99.90
40151;DHT22;25866;52.420;10.640;2023-04-06T00:08:49;1.90;99.90
40151;DHT22;25866;52.420;10.640;2023-04-06T00:11:15;1.90;99.90
40151;DHT22;25866;52.420;10.640;2023-04-06T00:13:42;1.80;99.90
40151;DHT22;25866;52.420;10.640;2023-04-06T00:16:07;1.80;99.90
40151;DHT22;25866;52.420;10.640;2023-04-06T00:18:33;1.80;99.90
40151;DHT22;25866;52.420;10.640;2023-04-06T00:20:59;1.80;99.90
40151;DHT22;25866;52.420;10.640;2023-04-06T00:23:25;1.70;99.90
40151;DHT22;25866;52.420;10.640;2023-04-06T00:25:50;1.80;99.90
40151;DHT22;25866;52.420;10.640;2023-04-06T00:28:16;1.70;99.90
40151;DHT22;25866;52.420;10.640;2023-04-06T00:30:42;1.70;99.90
40151;DHT22;25866;52.420;10.640;2023-04-06T00:33:08;1.50;99.90
40151;DHT22;25866;52.420;10.640;2023-04-06T00:35:34;1.50;99.90
40151;DHT22;25866;52.420;10.640;2023-04-06T00:38:00;1.50;99.90
40151;DHT22;25866;52.420;10.640;2023-04-06T00:40:26;1.50;99.90
40151;DHT22;25866;52.420;10.640;2023-04-06T00:42:54;1.50;99.90
40151;DHT22;25866;52.420;10.640;2023-04-06T00:45:20;1.50;99.90
40151;DHT22;25866;52.420;10.640;2023-04-06T00:47:46;1.40;99.90
40151;DHT22;25866;52.420;10.640;2023-04-06T00:50:12;1.40;99.90
40151;DHT22;25866;52.420;10.640;2023-04-06T00:52:37;1.40;99.90
40151;DHT22;25866;52.420;10.640;2023-04-06T00:55:04;1.40;99.90
40151;DHT22;25866;52.420;10.640;2023-04-06T00:57:31;1.40;99.90
40151;DHT22;25866;52.420;10.640;2023-04-06T00:59:56;1.40;99.90
40151;DHT22;25866;52.420;10.640;2023-04-06T01:02:23;1.40;99.90
40151;DHT22;25866;52.420;10.640;2023-04-06T01:04:50;1.40;99.90
40151;DHT22;25866;52.420;10.640;2023-04-06T01:07:15;1.40;99.90
40151;DHT22;25866;52.420;10.640;2023-04-06T01:09:41;1.30;99.90
40151;DHT22;25866;52.420;10.640;2023-04-06T01:12:07;1.40;99.90
40151;DHT22;25866;52.420;10.640;2023-04-06T01:14:33;1.30;99.90
40151;DHT22;25866;52.420;10.640;2023-04-06T01:16:59;1.30;99.90
40151;DHT22;25866;52.420;10.640;2023-04-06T01:19:26;1.30;99.90
40151;DHT22;25866;52.420;10.640;2023-04-06T01:21:52;1.30;99.90
40151;DHT22;25866;52.420;10.640;2023-04-06T01:24:19;1.30;99.90
40151;DHT22;25866;52.420;10.640;2023-04-06T01:26:45;1.20;99.90
40151;DHT22;25866;52.420;10.640;2023-04-06T01:29:11;1.20;99.90
40151;DHT22;25866;52.420;10.640;2023-04-06T01:31:39;1.10;99.90
40151;DHT22;25866;52.420;10.640;2023-04-06T01:34:05;1.10;99.90
40151;DHT22;25866;52.420;10.640;2023-04-06T01:36:31;1.10;99.90
40151;DHT22;25866;52.420;10.640;2023-04-06T01:38:57;1.10;99.90
40151;DHT22;25866;52.420;10.640;2023-04-06T01:41:23;1.10;99.90
40151;DHT22;25866;52.420;10.640;2023-04-06T01:43:49;1.10;99.90
40151;DHT22;25866;52.420;10.640;2023-04-06T01:46:15;1.10;99.90
40151;DHT22;25866;52.420;10.640;2023-04-06T01:48:41;1.10;99.90
40151;DHT22;25866;52.420;10.640;2023-04-06T01:51:07;1.10;99.90
40151;DHT22;25866;52.420;10.640;2023-04-06T01:53:35;1.00;99.90
40151;DHT22;25866;52.420;10.640;2023-04-06T01:56:00;1.10;99.90
40151;DHT22;25866;52.420;10.640;2023-04-06T01:58:26;1.00;99.90
40151;DHT22;25866;52.420;10.640;2023-04-06T02:00:52;0.90;99.90
40151;DHT22;25866;52.420;10.640;2023-04-06T02:03:25;0.90;99.90
40151;DHT22;25866;52.420;10.640;2023-04-06T02:05:51;0.90;99.90
40151;DHT22;25866;52.420;10.640;2023-04-06T02:08:16;0.80;99.90
40151;DHT22;25866;52.420;10.640;2023-04-06T02:10:42;0.70;99.90
40151;DHT22;25866;52.420;10.640;2023-04-06T02:13:08;0.80;99.90
40151;DHT22;25866;52.420;10.640;2023-04-06T02:15:33;0.80;99.90
40151;DHT22;25866;52.420;10.640;2023-04-06T02:17:59;0.70;99.90
40151;DHT22;25866;52.420;10.640;2023-04-06T02:20:25;0.70;99.90
40151;DHT22;25866;52.420;10.640;2023-04-06T02:22:52;0.70;99.90
40151;DHT22;25866;52.420;10.640;2023-04-06T02:25:18;0.70;99.90
40151;DHT22;25866;52.420;10.640;2023-04-06T02:27:43;0.70;99.90
40151;DHT22;25866;52.420;10.640;2023-04-06T02:30:10;0.50;99.90
40151;DHT22;25866;52.420;10.640;2023-04-06T02:32:36;0.50;99.90
40151;DHT22;25866;52.420;10.640;2023-04-06T02:35:01;0.50;99.90
40151;DHT22;25866;52.420;10.640;2023-04-06T02:37:27;0.60;99.90
40151;DHT22;25866;52.420;10.640;2023-04-06T02:39:53;0.60;99.90
40151;DHT22;25866;52.420;10.640;2023-04-06T02:42:22;0.50;99.90
40151;DHT22;25866;52.420;10.640;2023-04-06T02:44:48;0.50;99.90
40151;DHT22;25866;52.420;10.640;2023-04-06T02:47:14;0.50;99.90
40151;DHT22;25866;52.420;10.640;2023-04-06T02:49:40;0.50;99.90
40151;DHT22;25866;52.420;10.640;2023-04-06T02:52:13;0.40;99.90
40151;DHT22;25866;52.420;10.640;2023-04-06T02:54:38;0.30;99.90
40151;DHT22;25866;52.420;10.640;2023-04-06T02:57:04;0.30;99.90
40151;DHT22;25866;52.420;10.640;2023-04-06T02:59:31;0.30;99.90
40151;DHT22;25866;52.420;10.640;2023-04-06T03:01:56;0.30;99.90
40151;DHT22;25866;52.420;10.640;2023-04-06T03:04:22;0.20;99.90
40151;DHT22;25866;52.420;10.640;2023-04-06T03:06:51;0.20;99.90
40151;DHT22;25866;52.420;10.640;2023-04-06T03:09:16;0.20;99.90
40151;DHT22;25866;52.420;10.640;2023-04-06T03:11:42;0.20;99.90
40151;DHT22;25866;52.420;10.640;2023-04-06T03:14:09;0.20;99.90
40151;DHT22;25866;52.420;10.640;2023-04-06T03:16:35;0.30;99.90
40151;DHT22;25866;52.420;10.640;2023-04-06T03:19:00;0.30;99.90
40151;DHT22;25866;52.420;10.640;2023-04-06T03:21:26;0.40;99.90
40151;DHT22;25866;52.420;10.640;2023-04-06T03:23:57;0.30;99.90
40151;DHT22;25866;52.420;10.640;2023-04-06T03:26:22;0.20;99.90
40151;DHT22;25866;52.420;10.640;2023-04-06T03:28:48;0.10;99.90
40151;DHT22;25866;52.420;10.640;2023-04-06T03:31:14;0.10;99.90
40151;DHT22;25866;52.420;10.640;2023-04-06T03:33:45;0.10;99.90
40151;DHT22;25866;52.420;10.640;2023-04-06T03:36:11;0.00;99.90
40151;DHT22;25866;52.420;10.640;2023-04-06T03:38:36;0.00;99.90
40151;DHT22;25866;52.420;10.640;2023-04-06T03:41:02;0.00;99.90
40151;DHT22;25866;52.420;10.640;2023-04-06T03:43:31;-0.10;99.90
40151;DHT22;25866;52.420;10.640;2023-04-06T03:45:57;-0.10;99.90
40151;DHT22;25866;52.420;10.640;2023-04-06T03:48:22;-0.10;99.90
40151;DHT22;25866;52.420;10.640;2023-04-06T03:50:48;-0.10;99.90
40151;DHT22;25866;52.420;10.640;2023-04-06T03:53:15;-0.10;99.90
40151;DHT22;25866;52.420;10.640;2023-04-06T03:55:41;-0.10;99.90
40151;DHT22;25866;52.420;10.640;2023-04-06T03:58:07;-0.10;99.90
40151;DHT22;25866;52.420;10.640;2023-04-06T04:00:32;-0.10;99.90
40151;DHT22;25866;52.420;10.640;2023-04-06T04:02:58;-0.10;99.90
40151;DHT22;25866;52.420;10.640;2023-04-06T04:05:24;-0.10;99.90
40151;DHT22;25866;52.420;10.640;2023-04-06T04:07:51;-0.20;99.90
40151;DHT22;25866;52.420;10.640;2023-04-06T04:10:17;-0.20;99.90
40151;DHT22;25866;52.420;10.640;2023-04-06T04:12:43;-0.20;99.90
40151;DHT22;25866;52.420;10.640;2023-04-06T04:15:09;-0.20;99.90
40151;DHT22;25866;52.420;10.640;2023-04-06T04:17:34;-0.20;99.90
40151;DHT22;25866;52.420;10.640;2023-04-06T04:20:00;-0.20;99.90
40151;DHT22;25866;52.420;10.640;2023-04-06T04:22:26;-0.20;99.90
40151;DHT22;25866;52.420;10.640;2023-04-06T04:24:54;-0.30;99.90
40151;DHT22;25866;52.420;10.640;2023-04-06T04:27:20;-0.30;99.90
40151;DHT22;25866;52.420;10.640;2023-04-06T04:29:46;-0.40;99.90
40151;DHT22;25866;52.420;10.640;2023-04-06T04:32:11;-0.30;99.90
40151;DHT22;25866;52.420;10.640;2023-04-06T04:34:48;-0.30;99.90
40151;DHT22;25866;52.420;10.640;2023-04-06T04:37:14;-0.30;99.90
40151;DHT22;25866;52.420;10.640;2023-04-06T04:39:40;-0.30;99.90
40151;DHT22;25866;52.420;10.640;2023-04-06T04:42:05;-0.40;99.90
40151;DHT22;25866;52.420;10.640;2023-04-06T04:44:33;-0.40;99.90
40151;DHT22;25866;52.420;10.640;2023-04-06T04:46:59;-0.50;99.90
40151;DHT22;25866;52.420;10.640;2023-04-06T04:49:24;-0.50;99.90
40151;DHT22;25866;52.420;10.640;2023-04-06T04:51:50;-0.50;99.90
40151;DHT22;25866;52.420;10.640;2023-04-06T04:54:19;-0.50;99.90
40151;DHT22;25866;52.420;10.640;2023-04-06T04:56:45;-0.60;99.90
40151;DHT22;25866;52.420;10.640;2023-04-06T04:59:11;-0.50;99.90
40151;DHT22;25866;52.420;10.640;2023-04-06T05:01:37;-0.50;99.90
40151;DHT22;25866;52.420;10.640;2023-04-06T05:04:04;-0.50;99.90
40151;DHT22;25866;52.420;10.640;2023-04-06T05:06:30;-0.50;99.90
40151;DHT22;25866;52.420;10.640;2023-04-06T05:08:56;-0.50;99.90
40151;DHT22;25866;52.420;10.640;2023-04-06T05:11:22;-0.50;99.90
40151;DHT22;25866;52.420;10.640;2023-04-06T05:13:49;-0.40;99.90
40151;DHT22;25866;52.420;10.640;2023-04-06T05:16:14;-0.40;99.90
40151;DHT22;25866;52.420;10.640;2023-04-06T05:18:40;-0.40;99.90
40151;DHT22;25866;52.420;10.640;2023-04-06T05:21:06;-0.30;99.90
40151;DHT22;25866;52.420;10.640;2023-04-06T05:23:31;-0.20;99.90
40151;DHT22;25866;52.420;10.640;2023-04-06T05:25:57;-0.20;99.90
40151;DHT22;25866;52.420;10.640;2023-04-06T05:28:23;-0.10;99.90
40151;DHT22;25866;52.420;10.640;2023-04-06T05:30:48;0.00;99.90
40151;DHT22;25866;52.420;10.640;2023-04-06T05:33:14;0.10;99.90
40151;DHT22;25866;52.420;10.640;2023-04-06T05:35:43;0.20;99.90
40151;DHT22;25866;52.420;10.640;2023-04-06T05:38:09;0.40;99.90
40151;DHT22;25866;52.420;10.640;2023-04-06T05:40:36;0.50;99.90
40151;DHT22;25866;52.420;10.640;2023-04-06T05:43:03;0.60;99.90
40151;DHT22;25866;52.420;10.640;2023-04-06T05:45:29;0.70;99.90
40151;DHT22;25866;52.420;10.640;2023-04-06T05:47:55;0.90;99.90
40151;DHT22;25866;52.420;10.640;2023-04-06T05:50:21;0.90;99.90
40151;DHT22;25866;52.420;10.640;2023-04-06T05:52:47;1.10;99.90
40151;DHT22;25866;52.420;10.640;2023-04-06T05:55:15;1.20;99.90
40151;DHT22;25866;52.420;10.640;2023-04-06T05:57:41;1.30;99.90
40151;DHT22;25866;52.420;10.640;2023-04-06T06:00:07;1.40;99.90
40151;DHT22;25866;52.420;10.640;2023-04-06T06:02:35;1.50;99.90
40151;DHT22;25866;52.420;10.640;2023-04-06T06:05:01;1.60;99.90
40151;DHT22;25866;52.420;10.640;2023-04-06T06:07:27;1.70;99.90
40151;DHT22;25866;52.420;10.640;2023-04-06T06:09:52;1.80;99.90
40151;DHT22;25866;52.420;10.640;2023-04-06T06:12:18;2.00;99.90
40151;DHT22;25866;52.420;10.640;2023-04-06T06:14:54;2.10;99.90
40151;DHT22;25866;52.420;10.640;2023-04-06T06:17:20;2.30;99.90
40151;DHT22;25866;52.420;10.640;2023-04-06T06:19:47;2.40;99.90
40151;DHT22;25866;52.420;10.640;2023-04-06T06:22:13;2.50;99.90
40151;DHT22;25866;52.420;10.640;2023-04-06T06:24:44;2.70;99.90
40151;DHT22;25866;52.420;10.640;2023-04-06T06:27:10;2.90;99.90
40151;DHT22;25866;52.420;10.640;2023-04-06T06:29:36;3.00;99.90
40151;DHT22;25866;52.420;10.640;2023-04-06T06:32:01;3.20;99.90
40151;DHT22;25866;52.420;10.640;2023-04-06T06:34:27;3.30;99.90
40151;DHT22;25866;52.420;10.640;2023-04-06T06:36:52;3.40;99.90
40151;DHT22;25866;52.420;10.640;2023-04-06T06:39:20;3.60;99.90
40151;DHT22;25866;52.420;10.640;2023-04-06T06:41:46;3.70;99.90
40151;DHT22;25866;52.420;10.640;2023-04-06T06:44:12;3.90;99.90
40151;DHT22;25866;52.420;10.640;2023-04-06T06:46:37;4.00;99.90
40151;DHT22;25866;52.420;10.640;2023-04-06T06:49:03;4.10;99.90
40151;DHT22;25866;52.420;10.640;2023-04-06T06:51:29;4.30;99.90
40151;DHT22;25866;52.420;10.640;2023-04-06T06:53:54;4.40;99.90
40151;DHT22;25866;52.420;10.640;2023-04-06T06:56:20;4.60;99.90
40151;DHT22;25866;52.420;10.640;2023-04-06T06:58:46;4.70;99.90
40151;DHT22;25866;52.420;10.640;2023-04-06T07:01:11;4.80;99.90
40151;DHT22;25866;52.420;10.640;2023-04-06T07:03:37;5.00;99.90
40151;DHT22;25866;52.420;10.640;2023-04-06T07:06:03;5.00;99.90
40151;DHT22;25866;52.420;10.640;2023-04-06T07:08:28;5.20;99.90
40151;DHT22;25866;52.420;10.640;2023-04-06T07:10:54;5.30;99.90
40151;DHT22;25866;52.420;10.640;2023-04-06T07:13:21;5.40;99.90
40151;DHT22;25866;52.420;10.640;2023-04-06T07:15:51;5.50;99.90
40151;DHT22;25866;52.420;10.640;2023-04-06T07:18:18;5.70;99.90
40151;DHT22;25866;52.420;10.640;2023-04-06T07:20:44;5.80;99.90
40151;DHT22;25866;52.420;10.640;2023-04-06T07:23:09;5.80;99.90
40151;DHT22;25866;52.420;10.640;2023-04-06T07:25:35;5.90;99.90
40151;DHT22;25866;52.420;10.640;2023-04-06T07:28:02;6.10;99.90
40151;DHT22;25866;52.420;10.640;2023-04-06T07:30:28;6.20;99.90
40151;DHT22;25866;52.420;10.640;2023-04-06T07:32:54;6.20;98.90
40151;DHT22;25866;52.420;10.640;2023-04-06T07:35:25;6.30;99.40
40151;DHT22;25866;52.420;10.640;2023-04-06T07:37:52;6.40;99.60
40151;DHT22;25866;52.420;10.640;2023-04-06T07:40:18;6.40;99.00
40151;DHT22;25866;52.420;10.640;2023-04-06T07:42:45;6.50;98.60
40151;DHT22;25866;52.420;10.640;2023-04-06T07:45:11;6.60;98.20
40151;DHT22;25866;52.420;10.640;2023-04-06T07:47:36;6.60;98.30
40151;DHT22;25866;52.420;10.640;2023-04-06T07:50:02;6.70;97.60
40151;DHT22;25866;52.420;10.640;2023-04-06T07:52:28;6.90;98.60
40151;DHT22;25866;52.420;10.640;2023-04-06T07:54:53;7.00;97.50
40151;DHT22;25866;52.420;10.640;2023-04-06T07:57:19;7.10;97.20
40151;DHT22;25866;52.420;10.640;2023-04-06T07:59:45;7.20;96.70
40151;DHT22;25866;52.420;10.640;2023-04-06T08:02:11;7.30;96.80
40151;DHT22;25866;52.420;10.640;2023-04-06T08:04:36;7.40;96.50
40151;DHT22;25866;52.420;10.640;2023-04-06T08:07:02;7.40;96.70
40151;DHT22;25866;52.420;10.640;2023-04-06T08:09:28;7.50;96.40
40151;DHT22;25866;52.420;10.640;2023-04-06T08:11:54;7.60;96.90
40151;DHT22;25866;52.420;10.640;2023-04-06T08:14:19;7.70;96.30
40151;DHT22;25866;52.420;10.640;2023-04-06T08:16:46;7.80;95.90
40151;DHT22;25866;52.420;10.640;2023-04-06T08:19:11;7.80;95.80
40151;DHT22;25866;52.420;10.640;2023-04-06T08:21:37;7.90;96.10
40151;DHT22;25866;52.420;10.640;2023-04-06T08:24:03;8.00;96.20
40151;DHT22;25866;52.420;10.640;2023-04-06T08:26:31;8.00;95.80
40151;DHT22;25866;52.420;10.640;2023-04-06T08:28:56;8.10;94.50
40151;DHT22;25866;52.420;10.640;2023-04-06T08:31:22;8.20;94.00
40151;DHT22;25866;52.420;10.640;2023-04-06T08:33:48;8.20;93.70
40151;DHT22;25866;52.420;10.640;2023-04-06T08:36:14;8.20;92.50
40151;DHT22;25866;52.420;10.640;2023-04-06T08:38:41;8.20;93.60
40151;DHT22;25866;52.420;10.640;2023-04-06T08:41:13;8.20;93.40
40151;DHT22;25866;52.420;10.640;2023-04-06T08:43:54;8.40;92.90
40151;DHT22;25866;52.420;10.640;2023-04-06T08:46:24;8.40;92.90
40151;DHT22;25866;52.420;10.640;2023-04-06T08:48:56;8.50;92.10
40151;DHT22;25866;52.420;10.640;2023-04-06T08:51:25;8.60;92.20
40151;DHT22;25866;52.420;10.640;2023-04-06T08:53:56;8.60;91.10
40151;DHT22;25866;52.420;10.640;2023-04-06T08:56:24;8.70;91.80
40151;DHT22;25866;52.420;10.640;2023-04-06T08:58:51;8.80;91.10
40151;DHT22;25866;52.420;10.640;2023-04-06T09:01:21;8.90;92.00
40151;DHT22;25866;52.420;10.640;2023-04-06T09:03:48;9.00;92.10
40151;DHT22;25866;52.420;10.640;2023-04-06T09:06:15;9.10;91.20
40151;DHT22;25866;52.420;10.640;2023-04-06T09:08:41;9.20;91.00
40151;DHT22;25866;52.420;10.640;2023-04-06T09:11:07;9.30;90.70
40151;DHT22;25866;52.420;10.640;2023-04-06T09:13:47;9.30;90.60
40151;DHT22;25866;52.420;10.640;2023-04-06T09:16:14;9.40;89.40
40151;DHT22;25866;52.420;10.640;2023-04-06T09:18:41;9.40;90.10
40151;DHT22;25866;52.420;10.640;2023-04-06T09:21:07;9.50;90.90
40151;DHT22;25866;52.420;10.640;2023-04-06T09:23:33;9.70;90.50
40151;DHT22;25866;52.420;10.640;2023-04-06T09:26:06;9.80;89.40
40151;DHT22;25866;52.420;10.640;2023-04-06T09:29:04;9.80;88.30
40151;DHT22;25866;52.420;10.640;2023-04-06T09:31:31;9.90;90.20
40151;DHT22;25866;52.420;10.640;2023-04-06T09:34:00;10.00;90.60
40151;DHT22;25866;52.420;10.640;2023-04-06T09:36:34;10.20;88.80
40151;DHT22;25866;52.420;10.640;2023-04-06T09:39:04;10.20;88.00
40151;DHT22;25866;52.420;10.640;2023-04-06T09:41:31;10.30;90.40
40151;DHT22;25866;52.420;10.640;2023-04-06T09:44:11;10.40;88.00
40151;DHT22;25866;52.420;10.640;2023-04-06T09:46:42;10.40;87.20
40151;DHT22;25866;52.420;10.640;2023-04-06T09:49:09;10.50;84.60
40151;DHT22;25866;52.420;10.640;2023-04-06T09:51:54;10.40;84.30
40151;DHT22;25866;52.420;10.640;2023-04-06T09:54:22;10.50;84.00
40151;DHT22;25866;52.420;10.640;2023-04-06T09:56:54;10.50;84.30
40151;DHT22;25866;52.420;10.640;2023-04-06T10:01:55;10.70;86.90
40151;DHT22;25866;52.420;10.640;2023-04-06T10:04:56;10.80;85.70
40151;DHT22;25866;52.420;10.640;2023-04-06T10:07:25;11.00;83.80
40151;DHT22;25866;52.420;10.640;2023-04-06T10:09:53;10.90;83.70
40151;DHT22;25866;52.420;10.640;2023-04-06T10:12:20;11.00;80.80
40151;DHT22;25866;52.420;10.640;2023-04-06T10:14:46;11.00;84.90
40151;DHT22;25866;52.420;10.640;2023-04-06T10:17:12;11.10;83.30
40151;DHT22;25866;52.420;10.640;2023-04-06T10:19:49;11.20;81.80
40151;DHT22;25866;52.420;10.640;2023-04-06T10:22:24;11.20;81.30
40151;DHT22;25866;52.420;10.640;2023-04-06T10:24:51;11.30;81.70
40151;DHT22;25866;52.420;10.640;2023-04-06T10:27:27;11.30;83.40
40151;DHT22;25866;52.420;10.640;2023-04-06T10:29:54;11.50;79.40
40151;DHT22;25866;52.420;10.640;2023-04-06T10:32:19;11.60;81.20
40151;DHT22;25866;52.420;10.640;2023-04-06T10:34:45;11.70;82.00
40151;DHT22;25866;52.420;10.640;2023-04-06T10:37:14;11.70;78.70
40151;DHT22;25866;52.420;10.640;2023-04-06T10:39:53;11.70;80.30
40151;DHT22;25866;52.420;10.640;2023-04-06T10:42:35;11.80;79.90
40151;DHT22;25866;52.420;10.640;2023-04-06T10:45:01;11.90;80.00
40151;DHT22;25866;52.420;10.640;2023-04-06T10:47:39;12.00;80.20
40151;DHT22;25866;52.420;10.640;2023-04-06T10:50:05;11.70;84.30
40151;DHT22;25866;52.420;10.640;2023-04-06T10:52:31;11.80;81.20
40151;DHT22;25866;52.420;10.640;2023-04-06T10:54:57;11.90;80.90
40151;DHT22;25866;52.420;10.640;2023-04-06T10:57:29;12.00;75.60
40151;DHT22;25866;52.420;10.640;2023-04-06T10:59:57;12.30;83.10
40151;DHT22;25866;52.420;10.640;2023-04-06T11:02:23;12.40;80.80
40151;DHT22;25866;52.420;10.640;2023-04-06T11:04:58;12.40;77.20
40151;DHT22;25866;52.420;10.640;2023-04-06T11:07:28;12.50;79.10
40151;DHT22;25866;52.420;10.640;2023-04-06T11:09:56;12.20;81.50
40151;DHT22;25866;52.420;10.640;2023-04-06T11:12:24;12.00;83.60
40151;DHT22;25866;52.420;10.640;2023-04-06T11:15:00;11.90;81.60
40151;DHT22;25866;52.420;10.640;2023-04-06T11:17:34;11.90;79.20
40151;DHT22;25866;52.420;10.640;2023-04-06T11:20:03;11.90;83.30
40151;DHT22;25866;52.420;10.640;2023-04-06T11:22:30;12.10;81.50
40151;DHT22;25866;52.420;10.640;2023-04-06T11:25:08;12.30;79.20
40151;DHT22;25866;52.420;10.640;2023-04-06T11:27:34;12.40;80.50
40151;DHT22;25866;52.420;10.640;2023-04-06T11:30:01;12.70;81.50
40151;DHT22;25866;52.420;10.640;2023-04-06T11:32:27;12.70;80.10
40151;DHT22;25866;52.420;10.640;2023-04-06T11:34:53;12.90;79.50
40151;DHT22;25866;52.420;10.640;2023-04-06T11:37:19;12.80;81.20
40151;DHT22;25866;52.420;10.640;2023-04-06T11:39:55;13.00;76.90
40151;DHT22;25866;52.420;10.640;2023-04-06T11:42:27;13.20;77.90
40151;DHT22;25866;52.420;10.640;2023-04-06T11:45:00;13.30;73.40
40151;DHT22;25866;52.420;10.640;2023-04-06T11:47:33;13.20;72.40
40151;DHT22;25866;52.420;10.640;2023-04-06T11:50:10;13.30;73.90
40151;DHT22;25866;52.420;10.640;2023-04-06T11:52:37;13.20;72.50
40151;DHT22;25866;52.420;10.640;2023-04-06T11:55:14;13.00;73.00
40151;DHT22;25866;52.420;10.640;2023-04-06T11:57:41;13.00;73.90
40151;DHT22;25866;52.420;10.640;2023-04-06T12:00:08;13.00;73.70
40151;DHT22;25866;52.420;10.640;2023-04-06T12:02:35;13.20;77.30
40151;DHT22;25866;52.420;10.640;2023-04-06T12:05:02;13.20;72.90
40151;DHT22;25866;52.420;10.640;2023-04-06T12:07:29;13.30;76.40
40151;DHT22;25866;52.420;10.640;2023-04-06T12:09:56;13.40;70.90
40151;DHT22;25866;52.420;10.640;2023-04-06T12:12:21;13.50;73.60
40151;DHT22;25866;52.420;10.640;2023-04-06T12:14:47;13.50;72.40
40151;DHT22;25866;52.420;10.640;2023-04-06T12:17:13;13.50;74.20
40151;DHT22;25866;52.420;10.640;2023-04-06T12:19:38;13.50;71.90
40151;DHT22;25866;52.420;10.640;2023-04-06T12:22:04;13.70;75.90
40151;DHT22;25866;52.420;10.640;2023-04-06T12:24:30;13.80;72.20
40151;DHT22;25866;52.420;10.640;2023-04-06T12:26:56;13.70;73.80
40151;DHT22;25866;52.420;10.640;2023-04-06T12:29:23;13.80;75.90
40151;DHT22;25866;52.420;10.640;2023-04-06T12:31:50;13.90;75.00
40151;DHT22;25866;52.420;10.640;2023-04-06T12:34:16;14.00;75.70
40151;DHT22;25866;52.420;10.640;2023-04-06T12:36:42;14.10;77.60
40151;DHT22;25866;52.420;10.640;2023-04-06T12:39:08;14.10;74.40
40151;DHT22;25866;52.420;10.640;2023-04-06T12:41:34;14.20;71.70
40151;DHT22;25866;52.420;10.640;2023-04-06T12:44:00;14.10;78.40
40151;DHT22;25866;52.420;10.640;2023-04-06T12:46:26;13.80;76.30
40151;DHT22;25866;52.420;10.640;2023-04-06T12:48:52;13.90;74.40
40151;DHT22;25866;52.420;10.640;2023-04-06T12:51:22;14.10;73.40
40151;DHT22;25866;52.420;10.640;2023-04-06T12:53:48;14.10;71.80
40151;DHT22;25866;52.420;10.640;2023-04-06T12:56:16;14.20;71.50
40151;DHT22;25866;52.420;10.640;2023-04-06T12:58:43;14.20;72.00
40151;DHT22;25866;52.420;10.640;2023-04-06T13:01:09;14.10;71.90
40151;DHT22;25866;52.420;10.640;2023-04-06T13:03:36;14.30;76.90
40151;DHT22;25866;52.420;10.640;2023-04-06T13:06:02;14.30;71.90
40151;DHT22;25866;52.420;10.640;2023-04-06T13:08:28;14.10;71.30
40151;DHT22;25866;52.420;10.640;2023-04-06T13:10:54;14.00;73.10
40151;DHT22;25866;52.420;10.640;2023-04-06T13:13:24;14.00;70.20
40151;DHT22;25866;52.420;10.640;2023-04-06T13:15:51;14.20;72.10
40151;DHT22;25866;52.420;10.640;2023-04-06T13:18:17;14.20;73.00
40151;DHT22;25866;52.420;10.640;2023-04-06T13:20:42;14.10;73.10
40151;DHT22;25866;52.420;10.640;2023-04-06T13:23:08;13.90;72.90
40151;DHT22;25866;52.420;10.640;2023-04-06T13:25:34;13.90;76.00
40151;DHT22;25866;52.420;10.640;2023-04-06T13:28:00;13.90;73.80
40151;DHT22;25866;52.420;10.640;2023-04-06T13:30:26;13.90;73.10
40151;DHT22;25866;52.420;10.640;2023-04-06T13:32:52;13.90;73.80
40151;DHT22;25866;52.420;10.640;2023-04-06T13:35:17;14.00;71.90
40151;DHT22;25866;52.420;10.640;2023-04-06T13:37:43;14.10;72.80
40151;DHT22;25866;52.420;10.640;2023-04-06T13:40:10;14.00;71.50
40151;DHT22;25866;52.420;10.640;2023-04-06T13:42:36;14.20;72.80
40151;DHT22;25866;52.420;10.640;2023-04-06T13:45:04;14.30;71.10
40151;DHT22;25866;52.420;10.640;2023-04-06T13:47:30;14.50;72.00
40151;DHT22;25866;52.420;10.640;2023-04-06T13:49:55;14.40;72.90
40151;DHT22;25866;52.420;10.640;2023-04-06T13:52:22;14.30;72.90
40151;DHT22;25866;52.420;10.640;2023-04-06T13:54:49;14.20;71.50
40151;DHT22;25866;52.420;10.640;2023-04-06T13:57:14;14.20;71.50
40151;DHT22;25866;52.420;10.640;2023-04-06T13:59:40;14.20;71.00
40151;DHT22;25866;52.420;10.640;2023-04-06T14:02:08;14.20;71.70
40151;DHT22;25866;52.420;10.640;2023-04-06T14:04:34;14.40;73.30
40151;DHT22;25866;52.420;10.640;2023-04-06T14:07:01;14.40;72.80
40151;DHT22;25866;52.420;10.640;2023-04-06T14:09:28;14.40;71.80
40151;DHT22;25866;52.420;10.640;2023-04-06T14:11:54;14.70;70.70
40151;DHT22;25866;52.420;10.640;2023-04-06T14:14:20;14.70;68.90
40151;DHT22;25866;52.420;10.640;2023-04-06T14:16:47;14.60;68.60
40151;DHT22;25866;52.420;10.640;2023-04-06T14:19:14;14.50;71.90
40151;DHT22;25866;52.420;10.640;2023-04-06T14:21:44;14.50;70.60
40151;DHT22;25866;52.420;10.640;2023-04-06T14:24:10;14.50;69.70
40151;DHT22;25866;52.420;10.640;2023-04-06T14:26:37;14.50;69.30
40151;DHT22;25866;52.420;10.640;2023-04-06T14:29:03;14.70;70.50
40151;DHT22;25866;52.420;10.640;2023-04-06T14:31:30;14.70;68.10
40151;DHT22;25866;52.420;10.640;2023-04-06T14:33:56;14.70;68.90
40151;DHT22;25866;52.420;10.640;2023-04-06T14:36:22;14.60;67.00
40151;DHT22;25866;52.420;10.640;2023-04-06T14:38:48;14.50;69.50
40151;DHT22;25866;52.420;10.640;2023-04-06T14:41:23;14.40;67.90
40151;DHT22;25866;52.420;10.640;2023-04-06T14:43:48;14.30;68.30
40151;DHT22;25866;52.420;10.640;2023-04-06T14:46:14;14.40;68.90
40151;DHT22;25866;52.420;10.640;2023-04-06T14:48:41;14.30;67.20
40151;DHT22;25866;52.420;10.640;2023-04-06T14:51:07;14.30;68.80
40151;DHT22;25866;52.420;10.640;2023-04-06T14:53:33;14.10;66.60
40151;DHT22;25866;52.420;10.640;2023-04-06T14:55:59;14.00;68.00
40151;DHT22;25866;52.420;10.640;2023-04-06T14:58:25;14.00;67.90
40151;DHT22;25866;52.420;10.640;2023-04-06T15:00:58;14.00;68.60
40151;DHT22;25866;52.420;10.640;2023-04-06T15:03:27;14.10;68.70
40151;DHT22;25866;52.420;10.640;2023-04-06T15:05:54;14.20;70.00
40151;DHT22;25866;52.420;10.640;2023-04-06T15:08:22;14.10;66.80
40151;DHT22;25866;52.420;10.640;2023-04-06T15:10:49;14.10;68.90
40151;DHT22;25866;52.420;10.640;2023-04-06T15:13:15;14.00;66.90
40151;DHT22;25866;52.420;10.640;2023-04-06T15:15:41;13.90;69.20
40151;DHT22;25866;52.420;10.640;2023-04-06T15:18:08;13.80;65.20
40151;DHT22;25866;52.420;10.640;2023-04-06T15:20:34;13.70;68.40
40151;DHT22;25866;52.420;10.640;2023-04-06T15:23:01;13.60;68.90
40151;DHT22;25866;52.420;10.640;2023-04-06T15:25:27;13.60;69.70